sensor_id;sensor_type;location;lat;lon;timestamp;P1;durP1;ratioP1;P2;durP2;ratioP2
54452;SDS011;40363;52.270;10.546;2023-07-31T00:01:15;3.22;;;1.55;;
54452;SDS011;40363;52.270;10.546;2023-07-31T00:03:42;2.15;;;1.10;;
54452;SDS011;40363;52.270;10.546;2023-07-31T00:06:08;5.75;;;1.20;;
54452;SDS011;40363;52.270;10.546;2023-07-31T00:08:35;5.60;;;1.50;;
54452;SDS011;40363;52.270;10.546;2023-07-31T00:11:03;2.17;;;1.02;;
54452;SDS011;40363;52.270;10.546;2023-07-31T00:13:29;2.97;;;1.20;;
54452;SDS011;40363;52.270;10.546;2023-07-31T00:15:56;3.80;;;1.40;;
54452;SDS011;40363;52.270;10.546;2023-07-31T00:18:22;2.15;;;1.25;;
54452;SDS011;40363;52.270;10.546;2023-07-31T00:20:49;2.20;;;1.35;;
54452;SDS011;40363;52.270;10.546;2023-07-31T00:23:16;5.15;;;1.27;;
54452;SDS011;40363;52.270;10.546;2023-07-31T00:25:43;4.05;;;1.40;;
54452;SDS011;40363;52.270;10.546;2023-07-31T00:28:11;4.53;;;1.40;;
54452;SDS011;40363;52.270;10.546;2023-07-31T00:30:37;3.40;;;1.65;;
54452;SDS011;40363;52.270;10.546;2023-07-31T00:33:04;6.05;;;1.73;;
54452;SDS011;40363;52.270;10.546;2023-07-31T00:35:30;2.10;;;1.70;;
54452;SDS011;40363;52.270;10.546;2023-07-31T00:37:57;3.17;;;1.05;;
54452;SDS011;40363;52.270;10.546;2023-07-31T00:40:24;2.22;;;1.10;;
54452;SDS011;40363;52.270;10.546;2023-07-31T00:42:51;4.70;;;1.42;;
54452;SDS011;40363;52.270;10.546;2023-07-31T00:45:19;2.75;;;1.23;;
54452;SDS011;40363;52.270;10.546;2023-07-31T00:47:48;5.57;;;1.75;;
54452;SDS011;40363;52.270;10.546;2023-07-31T00:50:14;3.63;;;1.42;;
54452;SDS011;40363;52.270;10.546;2023-07-31T00:52:41;6.70;;;2.38;;
54452;SDS011;40363;52.270;10.546;2023-07-31T00:55:08;2.63;;;1.40;;
54452;SDS011;40363;52.270;10.546;2023-07-31T00:57:34;3.45;;;1.60;;
54452;SDS011;40363;52.270;10.546;2023-07-31T01:00:04;3.42;;;1.50;;
54452;SDS011;40363;52.270;10.546;2023-07-31T01:02:33;2.90;;;1.50;;
54452;SDS011;40363;52.270;10.546;2023-07-31T01:05:00;2.72;;;1.45;;
54452;SDS011;40363;52.270;10.546;2023-07-31T01:07:30;4.35;;;1.48;;
54452;SDS011;40363;52.270;10.546;2023-07-31T01:10:02;4.43;;;1.77;;
54452;SDS011;40363;52.270;10.546;2023-07-31T01:12:35;5.13;;;1.50;;
54452;SDS011;40363;52.270;10.546;2023-07-31T01:15:04;2.70;;;1.80;;
54452;SDS011;40363;52.270;10.546;2023-07-31T01:17:35;3.38;;;1.58;;
54452;SDS011;40363;52.270;10.546;2023-07-31T01:20:03;2.97;;;1.70;;
54452;SDS011;40363;52.270;10.546;2023-07-31T01:22:41;8.77;;;2.38;;
54452;SDS011;40363;52.270;10.546;2023-07-31T01:25:24;4.50;;;1.52;;
54452;SDS011;40363;52.270;10.546;2023-07-31T01:28:07;4.18;;;1.40;;
54452;SDS011;40363;52.270;10.546;2023-07-31T01:30:37;2.55;;;1.38;;
54452;SDS011;40363;52.270;10.546;2023-07-31T01:33:07;2.50;;;1.48;;
54452;SDS011;40363;52.270;10.546;2023-07-31T01:35:35;3.90;;;1.50;;
54452;SDS011;40363;52.270;10.546;2023-07-31T01:38:02;3.08;;;1.30;;
54452;SDS011;40363;52.270;10.546;2023-07-31T01:40:28;3.05;;;1.60;;
54452;SDS011;40363;52.270;10.546;2023-07-31T01:42:55;3.30;;;1.27;;
54452;SDS011;40363;52.270;10.546;2023-07-31T01:45:23;5.57;;;1.33;;
54452;SDS011;40363;52.270;10.546;2023-07-31T01:47:50;3.63;;;1.25;;
54452;SDS011;40363;52.270;10.546;2023-07-31T01:50:16;1.95;;;1.17;;
54452;SDS011;40363;52.270;10.546;2023-07-31T01:52:43;2.33;;;1.20;;
54452;SDS011;40363;52.270;10.546;2023-07-31T01:55:09;2.40;;;1.08;;
54452;SDS011;40363;52.270;10.546;2023-07-31T01:57:36;2.20;;;1.08;;
54452;SDS011;40363;52.270;10.546;2023-07-31T02:00:03;2.10;;;0.90;;
54452;SDS011;40363;52.270;10.546;2023-07-31T02:02:32;3.80;;;1.95;;
54452;SDS011;40363;52.270;10.546;2023-07-31T02:04:59;3.13;;;1.42;;
54452;SDS011;40363;52.270;10.546;2023-07-31T02:07:25;2.45;;;1.00;;
54452;SDS011;40363;52.270;10.546;2023-07-31T02:09:52;2.63;;;1.20;;
54452;SDS011;40363;52.270;10.546;2023-07-31T02:12:19;4.38;;;1.25;;
54452;SDS011;40363;52.270;10.546;2023-07-31T02:14:45;2.88;;;1.65;;
54452;SDS011;40363;52.270;10.546;2023-07-31T02:17:12;4.90;;;1.98;;
54452;SDS011;40363;52.270;10.546;2023-07-31T02:19:39;2.47;;;1.55;;
54452;SDS011;40363;52.270;10.546;2023-07-31T02:22:06;3.05;;;1.50;;
54452;SDS011;40363;52.270;10.546;2023-07-31T02:24:33;1.40;;;0.80;;
54452;SDS011;40363;52.270;10.546;2023-07-31T02:26:59;2.03;;;0.95;;
54452;SDS011;40363;52.270;10.546;2023-07-31T02:29:26;3.42;;;1.30;;
54452;SDS011;40363;52.270;10.546;2023-07-31T02:31:52;3.03;;;0.82;;
54452;SDS011;40363;52.270;10.546;2023-07-31T02:34:19;2.33;;;1.17;;
54452;SDS011;40363;52.270;10.546;2023-07-31T02:36:47;3.65;;;2.35;;
54452;SDS011;40363;52.270;10.546;2023-07-31T02:39:13;2.20;;;0.90;;
54452;SDS011;40363;52.270;10.546;2023-07-31T02:41:40;1.73;;;0.88;;
54452;SDS011;40363;52.270;10.546;2023-07-31T02:44:06;4.60;;;1.17;;
54452;SDS011;40363;52.270;10.546;2023-07-31T02:46:33;2.28;;;0.80;;
54452;SDS011;40363;52.270;10.546;2023-07-31T02:49:00;2.78;;;1.00;;
54452;SDS011;40363;52.270;10.546;2023-07-31T02:51:26;3.92;;;1.25;;
54452;SDS011;40363;52.270;10.546;2023-07-31T02:53:54;1.05;;;0.82;;
54452;SDS011;40363;52.270;10.546;2023-07-31T02:56:21;1.90;;;1.10;;
54452;SDS011;40363;52.270;10.546;2023-07-31T02:58:47;3.45;;;1.13;;
54452;SDS011;40363;52.270;10.546;2023-07-31T03:01:14;2.70;;;1.42;;
54452;SDS011;40363;52.270;10.546;2023-07-31T03:03:40;4.35;;;1.27;;
54452;SDS011;40363;52.270;10.546;2023-07-31T03:06:07;1.98;;;1.00;;
54452;SDS011;40363;52.270;10.546;2023-07-31T03:08:34;2.20;;;1.15;;
54452;SDS011;40363;52.270;10.546;2023-07-31T03:11:02;2.22;;;1.23;;
54452;SDS011;40363;52.270;10.546;2023-07-31T03:13:28;3.15;;;1.48;;
54452;SDS011;40363;52.270;10.546;2023-07-31T03:15:55;2.88;;;1.45;;
54452;SDS011;40363;52.270;10.546;2023-07-31T03:18:22;2.67;;;1.48;;
54452;SDS011;40363;52.270;10.546;2023-07-31T03:20:48;2.92;;;1.20;;
54452;SDS011;40363;52.270;10.546;2023-07-31T03:23:15;2.88;;;1.45;;
54452;SDS011;40363;52.270;10.546;2023-07-31T03:25:42;2.75;;;1.55;;
54452;SDS011;40363;52.270;10.546;2023-07-31T03:28:22;4.80;;;1.90;;
54452;SDS011;40363;52.270;10.546;2023-07-31T03:30:49;5.85;;;1.88;;
54452;SDS011;40363;52.270;10.546;2023-07-31T03:33:16;3.90;;;1.98;;
54452;SDS011;40363;52.270;10.546;2023-07-31T03:35:42;4.15;;;2.05;;
54452;SDS011;40363;52.270;10.546;2023-07-31T03:38:09;4.32;;;1.58;;
54452;SDS011;40363;52.270;10.546;2023-07-31T03:40:35;2.20;;;1.48;;
54452;SDS011;40363;52.270;10.546;2023-07-31T03:43:02;2.92;;;1.40;;
54452;SDS011;40363;52.270;10.546;2023-07-31T03:45:30;5.38;;;1.45;;
54452;SDS011;40363;52.270;10.546;2023-07-31T03:47:57;4.32;;;1.42;;
54452;SDS011;40363;52.270;10.546;2023-07-31T03:50:23;4.30;;;2.25;;
54452;SDS011;40363;52.270;10.546;2023-07-31T03:52:50;2.40;;;1.23;;
54452;SDS011;40363;52.270;10.546;2023-07-31T03:55:17;2.60;;;1.10;;
54452;SDS011;40363;52.270;10.546;2023-07-31T03:57:43;1.65;;;1.10;;
54452;SDS011;40363;52.270;10.546;2023-07-31T04:00:10;1.75;;;0.98;;
54452;SDS011;40363;52.270;10.546;2023-07-31T04:02:39;2.80;;;1.13;;
54452;SDS011;40363;52.270;10.546;2023-07-31T04:05:05;2.72;;;0.90;;
54452;SDS011;40363;52.270;10.546;2023-07-31T04:07:32;2.10;;;0.90;;
54452;SDS011;40363;52.270;10.546;2023-07-31T04:09:59;2.33;;;0.95;;
54452;SDS011;40363;52.270;10.546;2023-07-31T04:12:26;3.70;;;1.17;;
54452;SDS011;40363;52.270;10.546;2023-07-31T04:14:52;3.63;;;0.80;;
54452;SDS011;40363;52.270;10.546;2023-07-31T04:17:19;1.77;;;1.35;;
54452;SDS011;40363;52.270;10.546;2023-07-31T04:19:47;1.27;;;0.93;;
54452;SDS011;40363;52.270;10.546;2023-07-31T04:22:13;1.85;;;0.80;;
54452;SDS011;40363;52.270;10.546;2023-07-31T04:24:40;1.48;;;0.88;;
54452;SDS011;40363;52.270;10.546;2023-07-31T04:27:07;1.77;;;0.75;;
54452;SDS011;40363;52.270;10.546;2023-07-31T04:29:33;1.58;;;1.25;;
54452;SDS011;40363;52.270;10.546;2023-07-31T04:32:00;1.00;;;0.80;;
54452;SDS011;40363;52.270;10.546;2023-07-31T04:34:26;4.75;;;0.80;;
54452;SDS011;40363;52.270;10.546;2023-07-31T04:36:54;1.83;;;0.75;;
54452;SDS011;40363;52.270;10.546;2023-07-31T04:39:21;1.08;;;0.70;;
54452;SDS011;40363;52.270;10.546;2023-07-31T04:41:48;2.25;;;0.88;;
54452;SDS011;40363;52.270;10.546;2023-07-31T04:44:14;1.63;;;0.73;;
54452;SDS011;40363;52.270;10.546;2023-07-31T04:46:41;2.25;;;0.80;;
54452;SDS011;40363;52.270;10.546;2023-07-31T04:49:07;1.50;;;1.00;;
54452;SDS011;40363;52.270;10.546;2023-07-31T04:51:34;0.90;;;0.60;;
54452;SDS011;40363;52.270;10.546;2023-07-31T04:54:01;2.88;;;0.75;;
54452;SDS011;40363;52.270;10.546;2023-07-31T04:56:28;1.58;;;0.70;;
54452;SDS011;40363;52.270;10.546;2023-07-31T04:58:55;0.88;;;0.52;;
54452;SDS011;40363;52.270;10.546;2023-07-31T05:01:21;1.13;;;0.70;;
54452;SDS011;40363;52.270;10.546;2023-07-31T05:03:48;3.15;;;0.80;;
54452;SDS011;40363;52.270;10.546;2023-07-31T05:06:14;2.45;;;0.98;;
54452;SDS011;40363;52.270;10.546;2023-07-31T05:08:41;1.02;;;0.65;;
54452;SDS011;40363;52.270;10.546;2023-07-31T05:11:09;1.98;;;0.73;;
54452;SDS011;40363;52.270;10.546;2023-07-31T05:13:35;1.33;;;0.77;;
54452;SDS011;40363;52.270;10.546;2023-07-31T05:16:02;2.25;;;0.90;;
54452;SDS011;40363;52.270;10.546;2023-07-31T05:18:29;2.22;;;0.90;;
54452;SDS011;40363;52.270;10.546;2023-07-31T05:20:55;1.77;;;0.90;;
54452;SDS011;40363;52.270;10.546;2023-07-31T05:23:22;2.10;;;0.73;;
54452;SDS011;40363;52.270;10.546;2023-07-31T05:25:48;3.47;;;1.08;;
54452;SDS011;40363;52.270;10.546;2023-07-31T05:28:16;2.92;;;0.80;;
54452;SDS011;40363;52.270;10.546;2023-07-31T05:30:43;1.30;;;0.50;;
54452;SDS011;40363;52.270;10.546;2023-07-31T05:33:09;2.13;;;0.70;;
54452;SDS011;40363;52.270;10.546;2023-07-31T05:35:36;1.42;;;0.68;;
54452;SDS011;40363;52.270;10.546;2023-07-31T05:38:03;2.50;;;0.80;;
54452;SDS011;40363;52.270;10.546;2023-07-31T05:40:31;1.55;;;0.80;;
54452;SDS011;40363;52.270;10.546;2023-07-31T05:42:58;2.78;;;0.70;;
54452;SDS011;40363;52.270;10.546;2023-07-31T05:45:26;2.45;;;1.00;;
54452;SDS011;40363;52.270;10.546;2023-07-31T05:47:52;2.38;;;0.82;;
54452;SDS011;40363;52.270;10.546;2023-07-31T05:50:19;1.50;;;0.85;;
54452;SDS011;40363;52.270;10.546;2023-07-31T05:52:45;1.35;;;0.88;;
54452;SDS011;40363;52.270;10.546;2023-07-31T05:55:12;1.58;;;0.88;;
54452;SDS011;40363;52.270;10.546;2023-07-31T05:57:39;3.30;;;0.82;;
54452;SDS011;40363;52.270;10.546;2023-07-31T06:00:06;2.05;;;1.00;;
54452;SDS011;40363;52.270;10.546;2023-07-31T06:02:35;1.65;;;0.70;;
54452;SDS011;40363;52.270;10.546;2023-07-31T06:05:02;2.08;;;0.90;;
54452;SDS011;40363;52.270;10.546;2023-07-31T06:07:30;2.10;;;1.05;;
54452;SDS011;40363;52.270;10.546;2023-07-31T06:09:57;3.17;;;1.17;;
54452;SDS011;40363;52.270;10.546;2023-07-31T06:12:29;3.13;;;1.23;;
54452;SDS011;40363;52.270;10.546;2023-07-31T06:14:56;6.88;;;2.05;;
54452;SDS011;40363;52.270;10.546;2023-07-31T06:17:23;1.88;;;1.13;;
54452;SDS011;40363;52.270;10.546;2023-07-31T06:19:52;2.30;;;1.38;;
54452;SDS011;40363;52.270;10.546;2023-07-31T06:22:18;4.13;;;1.52;;
54452;SDS011;40363;52.270;10.546;2023-07-31T06:24:45;3.20;;;1.45;;
54452;SDS011;40363;52.270;10.546;2023-07-31T06:27:12;3.47;;;1.80;;
54452;SDS011;40363;52.270;10.546;2023-07-31T06:29:39;1.98;;;1.15;;
54452;SDS011;40363;52.270;10.546;2023-07-31T06:32:06;3.88;;;2.17;;
54452;SDS011;40363;52.270;10.546;2023-07-31T06:34:33;3.50;;;1.70;;
54452;SDS011;40363;52.270;10.546;2023-07-31T06:37:01;4.68;;;2.03;;
54452;SDS011;40363;52.270;10.546;2023-07-31T06:39:28;6.15;;;2.47;;
54452;SDS011;40363;52.270;10.546;2023-07-31T06:41:54;5.93;;;2.08;;
54452;SDS011;40363;52.270;10.546;2023-07-31T06:44:21;6.72;;;2.47;;
54452;SDS011;40363;52.270;10.546;2023-07-31T06:46:47;4.10;;;2.55;;
54452;SDS011;40363;52.270;10.546;2023-07-31T06:49:14;6.70;;;2.60;;
54452;SDS011;40363;52.270;10.546;2023-07-31T06:51:41;6.85;;;3.95;;
54452;SDS011;40363;52.270;10.546;2023-07-31T06:54:09;4.28;;;2.13;;
54452;SDS011;40363;52.270;10.546;2023-07-31T06:56:35;4.35;;;2.60;;
54452;SDS011;40363;52.270;10.546;2023-07-31T06:59:02;4.18;;;2.38;;
54452;SDS011;40363;52.270;10.546;2023-07-31T07:01:29;6.22;;;3.00;;
54452;SDS011;40363;52.270;10.546;2023-07-31T07:03:55;5.30;;;2.55;;
54452;SDS011;40363;52.270;10.546;2023-07-31T07:06:22;8.55;;;3.33;;
54452;SDS011;40363;52.270;10.546;2023-07-31T07:08:49;4.63;;;2.38;;
54452;SDS011;40363;52.270;10.546;2023-07-31T07:11:17;6.45;;;2.60;;
54452;SDS011;40363;52.270;10.546;2023-07-31T07:13:43;6.40;;;3.08;;
54452;SDS011;40363;52.270;10.546;2023-07-31T07:16:10;7.38;;;3.10;;
54452;SDS011;40363;52.270;10.546;2023-07-31T07:18:36;7.10;;;2.72;;
54452;SDS011;40363;52.270;10.546;2023-07-31T07:21:03;5.85;;;2.60;;
54452;SDS011;40363;52.270;10.546;2023-07-31T07:23:29;6.75;;;3.65;;
54452;SDS011;40363;52.270;10.546;2023-07-31T07:25:56;8.90;;;3.00;;
54452;SDS011;40363;52.270;10.546;2023-07-31T07:28:24;6.13;;;3.20;;
54452;SDS011;40363;52.270;10.546;2023-07-31T07:30:51;6.40;;;3.78;;
54452;SDS011;40363;52.270;10.546;2023-07-31T07:33:18;7.10;;;3.42;;
54452;SDS011;40363;52.270;10.546;2023-07-31T07:35:45;7.85;;;3.95;;
54452;SDS011;40363;52.270;10.546;2023-07-31T07:38:13;6.80;;;3.47;;
54452;SDS011;40363;52.270;10.546;2023-07-31T07:40:39;8.75;;;3.85;;
54452;SDS011;40363;52.270;10.546;2023-07-31T07:43:06;9.35;;;4.18;;
54452;SDS011;40363;52.270;10.546;2023-07-31T07:45:34;11.82;;;4.40;;
54452;SDS011;40363;52.270;10.546;2023-07-31T07:48:01;8.23;;;4.78;;
54452;SDS011;40363;52.270;10.546;2023-07-31T07:50:27;8.23;;;4.20;;
54452;SDS011;40363;52.270;10.546;2023-07-31T07:52:54;9.77;;;4.15;;
54452;SDS011;40363;52.270;10.546;2023-07-31T07:55:20;9.25;;;4.32;;
54452;SDS011;40363;52.270;10.546;2023-07-31T07:57:47;8.23;;;4.38;;
54452;SDS011;40363;52.270;10.546;2023-07-31T08:00:15;6.85;;;4.03;;
54452;SDS011;40363;52.270;10.546;2023-07-31T08:02:43;8.35;;;4.47;;
54452;SDS011;40363;52.270;10.546;2023-07-31T08:05:10;10.73;;;4.65;;
54452;SDS011;40363;52.270;10.546;2023-07-31T08:07:36;11.68;;;4.50;;
54452;SDS011;40363;52.270;10.546;2023-07-31T08:10:03;9.05;;;4.03;;
54452;SDS011;40363;52.270;10.546;2023-07-31T08:12:30;9.95;;;4.22;;
54452;SDS011;40363;52.270;10.546;2023-07-31T08:14:57;8.75;;;3.97;;
54452;SDS011;40363;52.270;10.546;2023-07-31T08:17:25;9.05;;;4.13;;
54452;SDS011;40363;52.270;10.546;2023-07-31T08:19:53;9.48;;;4.10;;
54452;SDS011;40363;52.270;10.546;2023-07-31T08:22:19;13.30;;;4.53;;
54452;SDS011;40363;52.270;10.546;2023-07-31T08:24:46;12.50;;;4.38;;
54452;SDS011;40363;52.270;10.546;2023-07-31T08:27:12;9.13;;;3.58;;
54452;SDS011;40363;52.270;10.546;2023-07-31T08:29:39;11.18;;;3.80;;
54452;SDS011;40363;52.270;10.546;2023-07-31T08:32:05;7.15;;;3.95;;
54452;SDS011;40363;52.270;10.546;2023-07-31T08:34:32;9.73;;;4.18;;
54452;SDS011;40363;52.270;10.546;2023-07-31T08:37:00;9.02;;;3.50;;
54452;SDS011;40363;52.270;10.546;2023-07-31T08:39:27;8.68;;;3.53;;
54452;SDS011;40363;52.270;10.546;2023-07-31T08:41:57;8.65;;;3.78;;
54452;SDS011;40363;52.270;10.546;2023-07-31T08:44:24;11.20;;;4.28;;
54452;SDS011;40363;52.270;10.546;2023-07-31T08:46:51;7.13;;;3.20;;
54452;SDS011;40363;52.270;10.546;2023-07-31T08:49:19;8.85;;;3.80;;
54452;SDS011;40363;52.270;10.546;2023-07-31T08:51:47;7.95;;;3.85;;
54452;SDS011;40363;52.270;10.546;2023-07-31T08:54:17;6.88;;;3.70;;
54452;SDS011;40363;52.270;10.546;2023-07-31T08:56:44;9.45;;;3.78;;
54452;SDS011;40363;52.270;10.546;2023-07-31T08:59:12;6.93;;;3.67;;
54452;SDS011;40363;52.270;10.546;2023-07-31T09:01:43;7.35;;;3.30;;
54452;SDS011;40363;52.270;10.546;2023-07-31T09:04:12;7.90;;;3.78;;
54452;SDS011;40363;52.270;10.546;2023-07-31T09:06:43;9.32;;;3.65;;
54452;SDS011;40363;52.270;10.546;2023-07-31T09:09:11;7.63;;;3.95;;
54452;SDS011;40363;52.270;10.546;2023-07-31T09:11:39;9.05;;;4.15;;
54452;SDS011;40363;52.270;10.546;2023-07-31T09:14:07;11.25;;;4.00;;
54452;SDS011;40363;52.270;10.546;2023-07-31T09:16:35;8.43;;;3.97;;
54452;SDS011;40363;52.270;10.546;2023-07-31T09:19:22;9.02;;;3.42;;
54452;SDS011;40363;52.270;10.546;2023-07-31T09:21:51;5.90;;;3.60;;
54452;SDS011;40363;52.270;10.546;2023-07-31T09:24:24;11.57;;;4.28;;
54452;SDS011;40363;52.270;10.546;2023-07-31T09:26:54;7.88;;;4.07;;
54452;SDS011;40363;52.270;10.546;2023-07-31T09:29:21;5.70;;;3.50;;
54452;SDS011;40363;52.270;10.546;2023-07-31T09:31:48;14.10;;;3.90;;
54452;SDS011;40363;52.270;10.546;2023-07-31T09:34:16;7.72;;;3.30;;
54452;SDS011;40363;52.270;10.546;2023-07-31T09:36:43;6.80;;;4.22;;
54452;SDS011;40363;52.270;10.546;2023-07-31T09:39:11;7.20;;;3.08;;
54452;SDS011;40363;52.270;10.546;2023-07-31T09:41:42;6.68;;;2.83;;
54452;SDS011;40363;52.270;10.546;2023-07-31T09:44:10;9.48;;;3.17;;
54452;SDS011;40363;52.270;10.546;2023-07-31T09:46:37;7.03;;;3.17;;
54452;SDS011;40363;52.270;10.546;2023-07-31T09:49:05;7.45;;;2.85;;
54452;SDS011;40363;52.270;10.546;2023-07-31T09:51:34;6.65;;;2.72;;
54452;SDS011;40363;52.270;10.546;2023-07-31T09:54:03;5.55;;;2.13;;
54452;SDS011;40363;52.270;10.546;2023-07-31T09:56:34;6.88;;;3.40;;
54452;SDS011;40363;52.270;10.546;2023-07-31T09:59:02;4.22;;;2.63;;
54452;SDS011;40363;52.270;10.546;2023-07-31T10:01:32;6.78;;;2.90;;
54452;SDS011;40363;52.270;10.546;2023-07-31T10:03:59;3.85;;;2.10;;
54452;SDS011;40363;52.270;10.546;2023-07-31T10:06:27;6.35;;;2.53;;
54452;SDS011;40363;52.270;10.546;2023-07-31T10:08:54;5.10;;;2.60;;
54452;SDS011;40363;52.270;10.546;2023-07-31T10:11:21;6.90;;;3.13;;
54452;SDS011;40363;52.270;10.546;2023-07-31T10:13:51;3.45;;;2.47;;
54452;SDS011;40363;52.270;10.546;2023-07-31T10:16:18;5.60;;;2.83;;
54452;SDS011;40363;52.270;10.546;2023-07-31T10:18:46;3.72;;;2.33;;
54452;SDS011;40363;52.270;10.546;2023-07-31T10:21:15;5.05;;;2.22;;
54452;SDS011;40363;52.270;10.546;2023-07-31T10:23:42;6.10;;;2.67;;
54452;SDS011;40363;52.270;10.546;2023-07-31T10:26:10;5.15;;;2.67;;
54452;SDS011;40363;52.270;10.546;2023-07-31T10:28:39;5.60;;;2.60;;
54452;SDS011;40363;52.270;10.546;2023-07-31T10:31:06;5.45;;;2.35;;
54452;SDS011;40363;52.270;10.546;2023-07-31T10:33:34;3.20;;;1.83;;
54452;SDS011;40363;52.270;10.546;2023-07-31T10:36:15;4.05;;;2.63;;
54452;SDS011;40363;52.270;10.546;2023-07-31T10:38:43;4.05;;;2.10;;
54452;SDS011;40363;52.270;10.546;2023-07-31T10:41:12;3.97;;;1.80;;
54452;SDS011;40363;52.270;10.546;2023-07-31T10:43:39;5.43;;;2.10;;
54452;SDS011;40363;52.270;10.546;2023-07-31T10:46:06;2.80;;;1.88;;
54452;SDS011;40363;52.270;10.546;2023-07-31T10:48:34;3.85;;;1.80;;
54452;SDS011;40363;52.270;10.546;2023-07-31T10:51:02;3.47;;;1.90;;
54452;SDS011;40363;52.270;10.546;2023-07-31T10:53:36;3.88;;;1.50;;
54452;SDS011;40363;52.270;10.546;2023-07-31T10:56:03;3.03;;;1.77;;
54452;SDS011;40363;52.270;10.546;2023-07-31T10:58:31;4.38;;;2.08;;
54452;SDS011;40363;52.270;10.546;2023-07-31T11:01:00;2.78;;;1.85;;
54452;SDS011;40363;52.270;10.546;2023-07-31T11:06:17;5.32;;;2.22;;
54452;SDS011;40363;52.270;10.546;2023-07-31T11:08:47;4.85;;;1.60;;
54452;SDS011;40363;52.270;10.546;2023-07-31T11:11:15;7.18;;;1.70;;
54452;SDS011;40363;52.270;10.546;2023-07-31T11:13:44;2.65;;;1.40;;
54452;SDS011;40363;52.270;10.546;2023-07-31T11:16:14;2.85;;;1.45;;
54452;SDS011;40363;52.270;10.546;2023-07-31T11:18:41;4.65;;;1.90;;
54452;SDS011;40363;52.270;10.546;2023-07-31T11:21:11;2.20;;;1.60;;
54452;SDS011;40363;52.270;10.546;2023-07-31T11:23:39;3.78;;;1.90;;
54452;SDS011;40363;52.270;10.546;2023-07-31T11:26:07;3.55;;;1.70;;
54452;SDS011;40363;52.270;10.546;2023-07-31T11:28:34;5.65;;;2.20;;
54452;SDS011;40363;52.270;10.546;2023-07-31T11:31:01;3.05;;;1.50;;
54452;SDS011;40363;52.270;10.546;2023-07-31T11:33:28;4.53;;;1.90;;
54452;SDS011;40363;52.270;10.546;2023-07-31T11:35:55;2.45;;;1.40;;
54452;SDS011;40363;52.270;10.546;2023-07-31T11:38:22;3.03;;;1.30;;
54452;SDS011;40363;52.270;10.546;2023-07-31T11:40:50;2.97;;;2.17;;
54452;SDS011;40363;52.270;10.546;2023-07-31T11:43:19;4.45;;;2.30;;
54452;SDS011;40363;52.270;10.546;2023-07-31T11:45:47;4.47;;;1.92;;
54452;SDS011;40363;52.270;10.546;2023-07-31T11:48:20;2.22;;;1.42;;
54452;SDS011;40363;52.270;10.546;2023-07-31T11:50:48;3.50;;;1.87;;
54452;SDS011;40363;52.270;10.546;2023-07-31T11:53:16;3.67;;;1.90;;
54452;SDS011;40363;52.270;10.546;2023-07-31T11:55:45;3.00;;;2.15;;
54452;SDS011;40363;52.270;10.546;2023-07-31T11:58:13;3.20;;;1.80;;
54452;SDS011;40363;52.270;10.546;2023-07-31T12:00:42;3.13;;;1.52;;
54452;SDS011;40363;52.270;10.546;2023-07-31T12:03:09;3.72;;;1.83;;
54452;SDS011;40363;52.270;10.546;2023-07-31T12:05:36;2.83;;;2.00;;
54452;SDS011;40363;52.270;10.546;2023-07-31T12:08:08;2.40;;;1.33;;
54452;SDS011;40363;52.270;10.546;2023-07-31T12:10:36;3.08;;;1.17;;
54452;SDS011;40363;52.270;10.546;2023-07-31T12:13:03;2.17;;;1.40;;
54452;SDS011;40363;52.270;10.546;2023-07-31T12:15:35;3.05;;;2.03;;
54452;SDS011;40363;52.270;10.546;2023-07-31T12:18:08;3.35;;;1.60;;
54452;SDS011;40363;52.270;10.546;2023-07-31T12:20:39;4.32;;;1.60;;
54452;SDS011;40363;52.270;10.546;2023-07-31T12:23:12;4.28;;;1.80;;
54452;SDS011;40363;52.270;10.546;2023-07-31T12:25:40;3.60;;;1.50;;
54452;SDS011;40363;52.270;10.546;2023-07-31T12:28:07;3.90;;;1.88;;
54452;SDS011;40363;52.270;10.546;2023-07-31T12:30:37;2.50;;;1.75;;
54452;SDS011;40363;52.270;10.546;2023-07-31T12:33:04;3.70;;;1.60;;
54452;SDS011;40363;52.270;10.546;2023-07-31T12:35:36;6.38;;;1.73;;
54452;SDS011;40363;52.270;10.546;2023-07-31T12:38:04;3.03;;;1.92;;
54452;SDS011;40363;52.270;10.546;2023-07-31T12:40:30;5.03;;;1.73;;
54452;SDS011;40363;52.270;10.546;2023-07-31T12:42:57;2.63;;;1.45;;
54452;SDS011;40363;52.270;10.546;2023-07-31T12:45:24;3.20;;;1.40;;
54452;SDS011;40363;52.270;10.546;2023-07-31T12:47:50;3.42;;;1.23;;
54452;SDS011;40363;52.270;10.546;2023-07-31T12:50:17;2.30;;;1.23;;
54452;SDS011;40363;52.270;10.546;2023-07-31T12:52:45;3.00;;;1.50;;
54452;SDS011;40363;52.270;10.546;2023-07-31T12:55:11;3.25;;;1.23;;
54452;SDS011;40363;52.270;10.546;2023-07-31T12:57:39;1.90;;;1.05;;
54452;SDS011;40363;52.270;10.546;2023-07-31T13:00:06;3.85;;;1.35;;
54452;SDS011;40363;52.270;10.546;2023-07-31T13:02:34;4.50;;;1.60;;
54452;SDS011;40363;52.270;10.546;2023-07-31T13:05:00;2.70;;;1.40;;
54452;SDS011;40363;52.270;10.546;2023-07-31T13:07:27;3.25;;;1.35;;
54452;SDS011;40363;52.270;10.546;2023-07-31T13:09:55;3.03;;;1.50;;
54452;SDS011;40363;52.270;10.546;2023-07-31T13:12:22;3.20;;;1.30;;
54452;SDS011;40363;52.270;10.546;2023-07-31T13:14:49;2.78;;;1.40;;
54452;SDS011;40363;52.270;10.546;2023-07-31T13:17:16;3.53;;;1.25;;
54452;SDS011;40363;52.270;10.546;2023-07-31T13:19:42;4.43;;;1.42;;
54452;SDS011;40363;52.270;10.546;2023-07-31T13:22:09;3.42;;;1.30;;
54452;SDS011;40363;52.270;10.546;2023-07-31T13:24:36;2.22;;;1.35;;
54452;SDS011;40363;52.270;10.546;2023-07-31T13:27:04;2.05;;;1.20;;
54452;SDS011;40363;52.270;10.546;2023-07-31T13:29:31;3.42;;;1.20;;
54452;SDS011;40363;52.270;10.546;2023-07-31T13:31:57;3.28;;;1.02;;
54452;SDS011;40363;52.270;10.546;2023-07-31T13:34:24;1.58;;;0.95;;
54452;SDS011;40363;52.270;10.546;2023-07-31T13:36:51;2.28;;;1.20;;
54452;SDS011;40363;52.270;10.546;2023-07-31T13:39:17;3.50;;;1.25;;
54452;SDS011;40363;52.270;10.546;2023-07-31T13:41:44;3.80;;;1.10;;
54452;SDS011;40363;52.270;10.546;2023-07-31T13:44:12;3.03;;;1.20;;
54452;SDS011;40363;52.270;10.546;2023-07-31T13:46:38;2.58;;;1.05;;
54452;SDS011;40363;52.270;10.546;2023-07-31T13:49:05;1.70;;;1.00;;
54452;SDS011;40363;52.270;10.546;2023-07-31T13:51:32;2.10;;;1.10;;
54452;SDS011;40363;52.270;10.546;2023-07-31T13:53:58;1.92;;;0.60;;
54452;SDS011;40363;52.270;10.546;2023-07-31T13:56:25;1.00;;;0.47;;
54452;SDS011;40363;52.270;10.546;2023-07-31T13:58:51;1.27;;;0.40;;
54452;SDS011;40363;52.270;10.546;2023-07-31T14:01:19;1.13;;;0.45;;
54452;SDS011;40363;52.270;10.546;2023-07-31T14:03:45;0.70;;;0.50;;
54452;SDS011;40363;52.270;10.546;2023-07-31T14:06:12;0.93;;;0.55;;
54452;SDS011;40363;52.270;10.546;2023-07-31T14:08:39;0.90;;;0.55;;
54452;SDS011;40363;52.270;10.546;2023-07-31T14:11:05;0.70;;;0.50;;
54452;SDS011;40363;52.270;10.546;2023-07-31T14:13:32;0.70;;;0.50;;
54452;SDS011;40363;52.270;10.546;2023-07-31T14:15:58;1.05;;;0.40;;
54452;SDS011;40363;52.270;10.546;2023-07-31T14:18:26;0.57;;;0.43;;
54452;SDS011;40363;52.270;10.546;2023-07-31T14:20:53;1.33;;;0.50;;
54452;SDS011;40363;52.270;10.546;2023-07-31T14:23:19;2.05;;;0.70;;
54452;SDS011;40363;52.270;10.546;2023-07-31T14:25:46;2.35;;;0.40;;
54452;SDS011;40363;52.270;10.546;2023-07-31T14:28:13;3.20;;;0.50;;
54452;SDS011;40363;52.270;10.546;2023-07-31T14:30:39;0.50;;;0.50;;
54452;SDS011;40363;52.270;10.546;2023-07-31T14:33:06;0.77;;;0.40;;
54452;SDS011;40363;52.270;10.546;2023-07-31T14:35:35;0.52;;;0.30;;
54452;SDS011;40363;52.270;10.546;2023-07-31T14:38:01;0.73;;;0.50;;